Time;durP1;ratioP1;P1;durP2;ratioP2;P2;SDS_P1;SDS_P2;PMS_P1;PMS_P2;Temp;Humidity;BMP_temperature;BMP_pressure;BME280_temperature;BME280_humidity;BME280_pressure;Samples;Min_cycle;Max_cycle;Signal;HPM_P1;HPM_P2
2021/06/06 00:00:39;;;;;;;0.00;0.00;;;;;;;;;;5122341;28;20206;-62
2021/06/06 00:03:06;;;;;;;0.10;0.10;;;;;;;;;;5116108;28;20229;-62
2021/06/06 00:05:33;;;;;;;0.00;0.00;;;;;;;;;;5105461;28;20204;-62
2021/06/06 00:07:58;;;;;;;0.00;0.00;;;;;;;;;;5118095;28;20256;-63
2021/06/06 00:10:26;;;;;;;0.00;0.00;;;;;;;;;;5118171;28;20212;-62
2021/06/06 00:12:51;;;;;;;0.00;0.00;;;;;;;;;;5109932;28;20388;-62
2021/06/06 00:15:18;;;;;;;0.00;0.00;;;;;;;;;;5109108;28;20254;-62
2021/06/06 00:17:43;;;;;;;0.08;0.08;;;;;;;;;;5115434;28;20283;-62
2021/06/06 00:20:11;;;;;;;0.10;0.10;;;;;;;;;;5120265;28;20481;-62
2021/06/06 00:22:37;;;;;;;0.00;0.00;;;;;;;;;;5122976;28;20229;-67
2021/06/06 00:25:03;;;;;;;0.10;0.10;;;;;;;;;;5120723;28;20491;-62
2021/06/06 00:27:30;;;;;;;0.00;0.00;;;;;;;;;;5123650;28;20205;-63
2021/06/06 00:29:57;;;;;;;0.00;0.00;;;;;;;;;;5112760;28;20210;-63
2021/06/06 00:32:23;;;;;;;0.00;0.00;;;;;;;;;;5115421;28;20267;-62
2021/06/06 00:34:49;;;;;;;0.00;0.00;;;;;;;;;;5127239;28;20210;-63
2021/06/06 00:37:15;;;;;;;0.08;0.08;;;;;;;;;;5127064;28;20205;-63
2021/06/06 00:39:41;;;;;;;0.00;0.00;;;;;;;;;;5127087;28;20224;-62
2021/06/06 00:42:07;;;;;;;0.00;0.00;;;;;;;;;;5112476;28;20501;-63
2021/06/06 00:44:34;;;;;;;0.00;0.00;;;;;;;;;;5114978;28;20377;-63
2021/06/06 00:47:00;;;;;;;0.00;0.00;;;;;;;;;;5126563;28;20209;-64
2021/06/06 00:49:26;;;;;;;0.00;0.00;;;;;;;;;;5126634;28;20203;-63
2021/06/06 00:51:53;;;;;;;0.05;0.05;;;;;;;;;;5117066;28;20208;-63
2021/06/06 00:54:21;;;;;;;0.00;0.00;;;;;;;;;;5124653;28;20204;-63
2021/06/06 00:56:52;;;;;;;0.00;0.00;;;;;;;;;;5114977;28;20223;-63
2021/06/06 00:59:19;;;;;;;0.10;0.10;;;;;;;;;;5125290;27;20202;-63
2021/06/06 01:01:46;;;;;;;0.00;0.00;;;;;;;;;;5115468;28;20260;-63
2021/06/06 01:04:12;;;;;;;0.00;0.00;;;;;;;;;;5124152;28;20268;-63
2021/06/06 01:06:38;;;;;;;0.00;0.00;;;;;;;;;;5126217;28;20539;-63
2021/06/06 01:09:05;;;;;;;0.10;0.10;;;;;;;;;;5126505;28;20286;-63
2021/06/06 01:11:35;;;;;;;0.00;0.00;;;;;;;;;;5125923;28;20207;-62
2021/06/06 01:14:04;;;;;;;0.10;0.10;;;;;;;;;;5116855;28;20199;-62
2021/06/06 01:16:32;;;;;;;0.00;0.00;;;;;;;;;;5117084;28;20208;-63
2021/06/06 01:19:01;;;;;;;0.00;0.00;;;;;;;;;;5120560;27;20230;-63
2021/06/06 01:21:36;;;;;;;0.10;0.10;;;;;;;;;;5129436;27;20214;-63
2021/06/06 01:24:09;;;;;;;0.00;0.00;;;;;;;;;;5116074;27;20224;-63
2021/06/06 01:26:37;;;;;;;0.00;0.00;;;;;;;;;;5113213;28;20205;-63
2021/06/06 01:29:06;;;;;;;0.00;0.00;;;;;;;;;;5116404;28;20203;-63
2021/06/06 01:31:35;;;;;;;0.00;0.00;;;;;;;;;;5115778;28;20496;-66
2021/06/06 01:34:02;;;;;;;0.00;0.00;;;;;;;;;;5121276;27;20461;-63
2021/06/06 01:36:30;;;;;;;0.00;0.00;;;;;;;;;;5116879;28;20207;-63
2021/06/06 01:38:57;;;;;;;0.00;0.00;;;;;;;;;;5124160;28;20231;-63
2021/06/06 01:41:27;;;;;;;0.00;0.00;;;;;;;;;;5125983;28;20496;-63
2021/06/06 01:43:55;;;;;;;0.10;0.10;;;;;;;;;;5111007;28;20229;-62
2021/06/06 01:46:24;;;;;;;0.10;0.10;;;;;;;;;;5125252;28;20203;-63
2021/06/06 01:48:51;;;;;;;0.00;0.00;;;;;;;;;;5108444;28;20399;-63
2021/06/06 01:51:18;;;;;;;0.10;0.10;;;;;;;;;;5113954;27;20508;-62
2021/06/06 01:53:45;;;;;;;0.00;0.00;;;;;;;;;;5124567;28;20492;-65
2021/06/06 01:56:11;;;;;;;0.00;0.00;;;;;;;;;;5112116;28;20209;-62
2021/06/06 01:58:39;;;;;;;0.00;0.00;;;;;;;;;;5118911;28;20204;-62
2021/06/06 02:01:06;;;;;;;0.03;0.03;;;;;;;;;;5125068;27;20204;-62
2021/06/06 02:03:32;;;;;;;0.00;0.00;;;;;;;;;;5120989;28;20267;-62
2021/06/06 02:05:58;;;;;;;0.00;0.00;;;;;;;;;;5124828;28;20200;-62
2021/06/06 02:08:26;;;;;;;0.00;0.00;;;;;;;;;;5130078;27;20208;-63
2021/06/06 02:10:54;;;;;;;0.00;0.00;;;;;;;;;;5116144;27;20483;-63
2021/06/06 02:13:22;;;;;;;0.10;0.10;;;;;;;;;;5124519;28;20459;-62
2021/06/06 02:15:51;;;;;;;0.10;0.10;;;;;;;;;;5125131;28;20202;-63
2021/06/06 02:18:16;;;;;;;0.00;0.00;;;;;;;;;;5125044;28;20209;-63
2021/06/06 02:20:44;;;;;;;0.10;0.10;;;;;;;;;;5113170;28;20203;-63
2021/06/06 02:23:10;;;;;;;0.00;0.00;;;;;;;;;;5112432;27;20471;-63
2021/06/06 02:25:36;;;;;;;0.10;0.10;;;;;;;;;;5113312;27;20245;-62
2021/06/06 02:28:07;;;;;;;0.05;0.05;;;;;;;;;;5124630;28;20209;-63
2021/06/06 02:30:35;;;;;;;0.08;0.08;;;;;;;;;;5123197;27;20204;-62
2021/06/06 02:33:05;;;;;;;0.10;0.10;;;;;;;;;;5124484;27;20245;-63
2021/06/06 02:35:32;;;;;;;0.00;0.00;;;;;;;;;;5114567;28;20192;-62
2021/06/06 02:38:00;;;;;;;0.08;0.08;;;;;;;;;;5119674;28;20267;-62
2021/06/06 02:40:29;;;;;;;0.03;0.03;;;;;;;;;;5114403;28;20229;-62
2021/06/06 02:42:55;;;;;;;0.10;0.10;;;;;;;;;;5116702;28;20223;-62
2021/06/06 02:45:23;;;;;;;0.03;0.03;;;;;;;;;;5134607;27;20205;-62
2021/06/06 02:47:50;;;;;;;0.10;0.10;;;;;;;;;;5124163;28;20256;-62
2021/06/06 02:50:19;;;;;;;0.03;0.03;;;;;;;;;;5121659;27;20199;-62
2021/06/06 02:52:47;;;;;;;0.10;0.10;;;;;;;;;;5118045;28;20208;-62
2021/06/06 02:55:14;;;;;;;0.00;0.00;;;;;;;;;;5113579;28;20219;-62
2021/06/06 02:57:43;;;;;;;0.10;0.10;;;;;;;;;;5116846;28;20387;-62
2021/06/06 03:00:13;;;;;;;0.10;0.10;;;;;;;;;;5117899;28;20250;-62
2021/06/06 03:02:40;;;;;;;0.08;0.08;;;;;;;;;;5121223;28;20234;-62
2021/06/06 03:05:07;;;;;;;0.00;0.00;;;;;;;;;;5119055;28;20200;-63
2021/06/06 03:07:36;;;;;;;0.10;0.10;;;;;;;;;;5135367;27;20202;-62
2021/06/06 03:10:02;;;;;;;0.10;0.10;;;;;;;;;;5122465;28;20506;-63
2021/06/06 03:12:29;;;;;;;0.00;0.00;;;;;;;;;;5122865;28;20203;-62
2021/06/06 03:14:55;;;;;;;0.05;0.05;;;;;;;;;;5123635;28;20239;-62
2021/06/06 03:17:23;;;;;;;0.05;0.05;;;;;;;;;;5124164;28;20204;-63
2021/06/06 03:19:51;;;;;;;0.10;0.10;;;;;;;;;;5123801;28;20207;-62
2021/06/06 03:22:18;;;;;;;0.10;0.10;;;;;;;;;;5123702;28;20220;-62
2021/06/06 03:24:48;;;;;;;0.10;0.10;;;;;;;;;;5113492;28;20213;-62
2021/06/06 03:27:15;;;;;;;0.10;0.10;;;;;;;;;;5123820;28;20213;-61
2021/06/06 03:29:47;;;;;;;0.10;0.10;;;;;;;;;;5115253;28;20206;-62
2021/06/06 03:32:13;;;;;;;0.00;0.00;;;;;;;;;;5116675;28;20206;-62
2021/06/06 03:34:39;;;;;;;0.08;0.08;;;;;;;;;;5117191;28;20365;-62
2021/06/06 03:37:05;;;;;;;0.10;0.10;;;;;;;;;;5113159;28;20265;-62
2021/06/06 03:39:31;;;;;;;0.08;0.08;;;;;;;;;;5119171;28;20232;-62
2021/06/06 03:41:58;;;;;;;0.10;0.10;;;;;;;;;;5117497;28;20480;-63
2021/06/06 03:44:25;;;;;;;0.10;0.10;;;;;;;;;;5141545;28;20263;-62
2021/06/06 03:46:51;;;;;;;0.00;0.00;;;;;;;;;;5111390;28;20202;-61
2021/06/06 03:49:17;;;;;;;0.10;0.10;;;;;;;;;;5123181;28;20544;-62
2021/06/06 03:51:43;;;;;;;0.00;0.00;;;;;;;;;;5113898;28;20276;-62
2021/06/06 03:54:11;;;;;;;0.00;0.00;;;;;;;;;;5120809;28;20359;-62
2021/06/06 03:56:36;;;;;;;0.00;0.00;;;;;;;;;;5110812;28;20396;-62
2021/06/06 03:59:03;;;;;;;0.03;0.03;;;;;;;;;;5115122;28;20233;-62
2021/06/06 04:01:29;;;;;;;0.10;0.10;;;;;;;;;;5118638;28;20208;-62
2021/06/06 04:03:55;;;;;;;0.10;0.10;;;;;;;;;;5118439;28;20521;-63
2021/06/06 04:06:22;;;;;;;0.00;0.00;;;;;;;;;;5123209;28;20226;-63
2021/06/06 04:08:47;;;;;;;0.10;0.10;;;;;;;;;;5124174;28;20198;-63
2021/06/06 04:11:13;;;;;;;0.10;0.10;;;;;;;;;;5136456;27;20225;-63
2021/06/06 04:13:39;;;;;;;0.05;0.05;;;;;;;;;;5127390;28;20202;-62
2021/06/06 04:16:06;;;;;;;0.10;0.10;;;;;;;;;;5126051;27;20222;-62
2021/06/06 04:18:32;;;;;;;0.00;0.00;;;;;;;;;;5116602;28;20200;-62
2021/06/06 04:21:00;;;;;;;0.08;0.08;;;;;;;;;;5115532;28;20214;-62
2021/06/06 04:23:26;;;;;;;0.10;0.10;;;;;;;;;;5110554;28;20530;-62
2021/06/06 04:25:52;;;;;;;0.10;0.10;;;;;;;;;;5120944;27;20216;-62
2021/06/06 04:28:18;;;;;;;0.08;0.08;;;;;;;;;;5122862;28;20199;-62
2021/06/06 04:30:43;;;;;;;0.00;0.00;;;;;;;;;;5129600;27;20387;-62
2021/06/06 04:33:11;;;;;;;0.08;0.08;;;;;;;;;;5127183;28;20469;-62
2021/06/06 04:35:37;;;;;;;0.10;0.10;;;;;;;;;;5127162;28;20302;-63
2021/06/06 04:38:03;;;;;;;0.10;0.10;;;;;;;;;;5126910;28;20267;-64
2021/06/06 04:40:30;;;;;;;0.10;0.10;;;;;;;;;;5133583;27;20489;-63
2021/06/06 04:42:56;;;;;;;0.00;0.00;;;;;;;;;;5127081;28;20225;-63
2021/06/06 04:45:22;;;;;;;0.00;0.00;;;;;;;;;;5126528;28;20332;-63
2021/06/06 04:47:48;;;;;;;0.10;0.10;;;;;;;;;;5126909;28;20209;-63
2021/06/06 04:50:15;;;;;;;0.08;0.08;;;;;;;;;;5128539;27;20493;-62
2021/06/06 04:52:41;;;;;;;0.10;0.10;;;;;;;;;;5122715;27;20305;-63
2021/06/06 04:55:08;;;;;;;0.08;0.08;;;;;;;;;;5127307;27;20297;-62
2021/06/06 04:57:34;;;;;;;0.10;0.10;;;;;;;;;;5108887;27;20203;-63
2021/06/06 04:59:59;;;;;;;0.10;0.10;;;;;;;;;;5113461;28;20249;-64
2021/06/06 05:02:25;;;;;;;0.10;0.10;;;;;;;;;;5122572;27;20271;-62
2021/06/06 05:04:51;;;;;;;0.08;0.08;;;;;;;;;;5120935;27;20226;-63
2021/06/06 05:07:18;;;;;;;0.10;0.10;;;;;;;;;;5129731;27;20374;-63
2021/06/06 05:09:44;;;;;;;0.10;0.10;;;;;;;;;;5126445;27;20201;-62
2021/06/06 05:12:10;;;;;;;0.10;0.10;;;;;;;;;;5134511;27;20508;-62
2021/06/06 05:14:36;;;;;;;0.00;0.00;;;;;;;;;;5122684;27;20198;-62
2021/06/06 05:17:03;;;;;;;0.00;0.00;;;;;;;;;;5116181;28;20209;-62
2021/06/06 05:19:28;;;;;;;0.10;0.10;;;;;;;;;;5126554;27;20209;-62
2021/06/06 05:21:54;;;;;;;0.05;0.05;;;;;;;;;;5111283;27;20323;-61
2021/06/06 05:24:21;;;;;;;0.00;0.00;;;;;;;;;;5112294;28;20233;-62
2021/06/06 05:26:47;;;;;;;0.10;0.10;;;;;;;;;;5110364;28;20260;-63
2021/06/06 05:29:13;;;;;;;0.00;0.00;;;;;;;;;;5113838;28;20202;-62
2021/06/06 05:31:38;;;;;;;0.25;0.25;;;;;;;;;;5121060;27;20274;-62
2021/06/06 05:34:04;;;;;;;3.40;3.25;;;;;;;;;;5115811;28;20227;-62
2021/06/06 05:36:30;;;;;;;0.10;0.10;;;;;;;;;;5132718;27;20204;-62
2021/06/06 05:38:56;;;;;;;0.10;0.10;;;;;;;;;;5117534;27;20238;-63
2021/06/06 05:41:24;;;;;;;0.10;0.10;;;;;;;;;;5113367;27;20494;-63
2021/06/06 05:43:50;;;;;;;0.10;0.10;;;;;;;;;;5114931;28;20256;-63
2021/06/06 05:46:17;;;;;;;0.00;0.00;;;;;;;;;;5114337;28;20200;-62
2021/06/06 05:48:43;;;;;;;0.00;0.00;;;;;;;;;;5117172;27;20407;-62
2021/06/06 05:51:09;;;;;;;0.10;0.10;;;;;;;;;;5107600;28;20207;-62
2021/06/06 05:53:35;;;;;;;0.05;0.05;;;;;;;;;;5114106;28;20213;-62
2021/06/06 05:56:03;;;;;;;0.00;0.00;;;;;;;;;;5114104;28;20405;-62
2021/06/06 05:58:31;;;;;;;0.00;0.00;;;;;;;;;;5121802;28;20241;-62
2021/06/06 06:00:57;;;;;;;0.00;0.00;;;;;;;;;;5129746;27;20228;-62
2021/06/06 06:03:23;;;;;;;0.00;0.00;;;;;;;;;;5124686;28;20215;-63
2021/06/06 06:05:49;;;;;;;0.08;0.08;;;;;;;;;;5118704;28;20474;-63
2021/06/06 06:08:18;;;;;;;0.03;0.03;;;;;;;;;;5111230;28;20226;-64
2021/06/06 06:10:44;;;;;;;0.10;0.10;;;;;;;;;;5112264;28;20211;-63
2021/06/06 06:13:10;;;;;;;0.00;0.00;;;;;;;;;;5110965;28;20203;-63
2021/06/06 06:15:37;;;;;;;0.03;0.03;;;;;;;;;;5113578;28;20220;-64
2021/06/06 06:18:03;;;;;;;0.10;0.10;;;;;;;;;;5115495;28;20500;-63
2021/06/06 06:20:29;;;;;;;0.05;0.05;;;;;;;;;;5111917;28;20206;-63
2021/06/06 06:22:54;;;;;;;0.10;0.10;;;;;;;;;;5120709;27;20259;-61
2021/06/06 06:25:20;;;;;;;0.00;0.00;;;;;;;;;;5116418;28;20204;-65
2021/06/06 06:27:46;;;;;;;0.00;0.00;;;;;;;;;;5116643;28;20200;-62
2021/06/06 06:30:14;;;;;;;0.00;0.00;;;;;;;;;;5107097;28;20205;-61
2021/06/06 06:32:41;;;;;;;0.00;0.00;;;;;;;;;;5113131;28;20239;-62
2021/06/06 06:35:08;;;;;;;0.10;0.10;;;;;;;;;;5108720;28;20519;-62
2021/06/06 06:37:33;;;;;;;0.10;0.10;;;;;;;;;;5117161;28;20300;-62
2021/06/06 06:39:59;;;;;;;0.00;0.00;;;;;;;;;;5111152;28;20509;-63
2021/06/06 06:42:25;;;;;;;0.00;0.00;;;;;;;;;;5119108;28;20204;-63
2021/06/06 06:44:51;;;;;;;0.00;0.00;;;;;;;;;;5110410;28;20379;-63
2021/06/06 06:47:17;;;;;;;0.10;0.10;;;;;;;;;;5113987;28;20201;-63
2021/06/06 06:49:44;;;;;;;0.08;0.08;;;;;;;;;;5109422;28;20210;-63
2021/06/06 06:52:10;;;;;;;0.08;0.08;;;;;;;;;;5112425;27;20237;-64
2021/06/06 06:54:36;;;;;;;0.05;0.05;;;;;;;;;;5109274;28;20198;-64
2021/06/06 06:57:02;;;;;;;0.08;0.08;;;;;;;;;;5108225;28;20205;-62
2021/06/06 06:59:28;;;;;;;0.10;0.10;;;;;;;;;;5111943;28;20527;-63
2021/06/06 07:01:54;;;;;;;0.00;0.00;;;;;;;;;;5112532;28;20228;-62
2021/06/06 07:04:20;;;;;;;0.05;0.05;;;;;;;;;;5108690;28;20218;-62
2021/06/06 07:06:48;;;;;;;0.00;0.00;;;;;;;;;;5112550;28;20201;-63
2021/06/06 07:09:14;;;;;;;0.10;0.10;;;;;;;;;;5113795;28;20202;-62
2021/06/06 07:11:40;;;;;;;0.08;0.08;;;;;;;;;;5110426;28;20217;-62
2021/06/06 07:14:06;;;;;;;0.10;0.10;;;;;;;;;;5112567;28;20426;-63
2021/06/06 07:16:32;;;;;;;0.10;0.10;;;;;;;;;;5114695;28;20345;-63
2021/06/06 07:18:57;;;;;;;0.10;0.10;;;;;;;;;;5115142;28;20222;-62
2021/06/06 07:21:23;;;;;;;0.10;0.10;;;;;;;;;;5112447;28;20211;-62
2021/06/06 07:23:51;;;;;;;0.08;0.08;;;;;;;;;;5106725;28;20248;-64
2021/06/06 07:26:19;;;;;;;0.00;0.00;;;;;;;;;;5123759;28;20203;-63
2021/06/06 07:28:45;;;;;;;0.00;0.00;;;;;;;;;;5120121;28;20196;-62
2021/06/06 07:31:11;;;;;;;0.00;0.00;;;;;;;;;;5119635;28;20208;-62
2021/06/06 07:33:41;;;;;;;0.03;0.03;;;;;;;;;;5110127;28;20281;-62
2021/06/06 07:36:07;;;;;;;0.03;0.03;;;;;;;;;;5112909;28;20205;-62
2021/06/06 07:38:33;;;;;;;0.00;0.00;;;;;;;;;;5124515;28;20232;-64
2021/06/06 07:41:01;;;;;;;0.00;0.00;;;;;;;;;;5127000;28;20276;-63
2021/06/06 07:43:27;;;;;;;0.00;0.00;;;;;;;;;;5118661;28;20252;-62
2021/06/06 07:45:53;;;;;;;0.10;0.10;;;;;;;;;;5119796;28;20246;-63
2021/06/06 07:48:19;;;;;;;0.00;0.00;;;;;;;;;;5119342;27;20558;-63
2021/06/06 07:50:46;;;;;;;0.00;0.00;;;;;;;;;;5119755;28;20224;-62
2021/06/06 07:53:12;;;;;;;0.03;0.03;;;;;;;;;;5122418;28;20197;-65
2021/06/06 07:55:38;;;;;;;0.00;0.00;;;;;;;;;;5120936;27;20204;-63
2021/06/06 07:58:05;;;;;;;0.10;0.10;;;;;;;;;;5115129;28;20365;-63
2021/06/06 08:00:32;;;;;;;0.00;0.00;;;;;;;;;;5120557;27;20239;-62
2021/06/06 08:02:58;;;;;;;0.10;0.10;;;;;;;;;;5115369;28;20386;-61
2021/06/06 08:05:24;;;;;;;0.03;0.03;;;;;;;;;;5120247;28;20489;-61
2021/06/06 08:07:50;;;;;;;0.00;0.00;;;;;;;;;;5113240;28;20264;-62
2021/06/06 08:10:18;;;;;;;0.00;0.00;;;;;;;;;;5127520;28;20461;-62
2021/06/06 08:12:44;;;;;;;0.10;0.10;;;;;;;;;;5118583;28;20463;-62
2021/06/06 08:15:12;;;;;;;0.00;0.00;;;;;;;;;;5126314;28;20212;-63
2021/06/06 08:17:38;;;;;;;0.00;0.00;;;;;;;;;;5127193;28;20206;-63
2021/06/06 08:20:05;;;;;;;0.10;0.10;;;;;;;;;;5127344;28;20260;-62
2021/06/06 08:22:31;;;;;;;0.00;0.00;;;;;;;;;;5127087;28;20370;-63
2021/06/06 08:24:58;;;;;;;0.10;0.10;;;;;;;;;;5127237;28;20224;-62
2021/06/06 08:27:24;;;;;;;0.00;0.00;;;;;;;;;;5127251;28;20271;-60
2021/06/06 08:29:49;;;;;;;0.10;0.10;;;;;;;;;;5126855;28;20198;-61
2021/06/06 08:32:16;;;;;;;0.00;0.00;;;;;;;;;;5127254;28;20278;-63
2021/06/06 08:34:42;;;;;;;0.00;0.00;;;;;;;;;;5127201;28;20240;-60
2021/06/06 08:37:08;;;;;;;0.00;0.00;;;;;;;;;;5127206;28;20544;-62
2021/06/06 08:39:35;;;;;;;0.00;0.00;;;;;;;;;;5125362;28;20529;-60
2021/06/06 08:42:05;;;;;;;0.00;0.00;;;;;;;;;;5126270;28;20206;-62
2021/06/06 08:44:32;;;;;;;0.10;0.10;;;;;;;;;;5126780;28;20264;-60
2021/06/06 08:47:00;;;;;;;0.00;0.00;;;;;;;;;;5126280;28;20220;-61
2021/06/06 08:49:30;;;;;;;0.00;0.00;;;;;;;;;;5116565;28;20202;-62
2021/06/06 08:52:02;;;;;;;0.00;0.00;;;;;;;;;;5117837;28;20225;-61
2021/06/06 08:54:32;;;;;;;0.00;0.00;;;;;;;;;;5110394;28;20218;-63
2021/06/06 08:57:00;;;;;;;0.00;0.00;;;;;;;;;;5118457;28;20202;-65
2021/06/06 08:59:28;;;;;;;0.00;0.00;;;;;;;;;;5111869;28;20320;-65
2021/06/06 09:01:55;;;;;;;0.00;0.00;;;;;;;;;;5117037;28;20202;-63
2021/06/06 09:04:23;;;;;;;0.00;0.00;;;;;;;;;;5121799;28;20545;-61
2021/06/06 09:06:51;;;;;;;0.00;0.00;;;;;;;;;;5123084;28;20216;-63
2021/06/06 09:09:18;;;;;;;0.00;0.00;;;;;;;;;;5125042;28;20269;-63
2021/06/06 09:11:44;;;;;;;0.00;0.00;;;;;;;;;;5136506;27;20216;-62
2021/06/06 09:14:10;;;;;;;0.00;0.00;;;;;;;;;;5123771;27;20266;-62
2021/06/06 09:16:49;;;;;;;0.00;0.00;;;;;;;;;;5126575;28;20481;-62
2021/06/06 09:19:17;;;;;;;0.00;0.00;;;;;;;;;;5126128;28;20224;-63
2021/06/06 09:21:53;;;;;;;0.10;0.10;;;;;;;;;;5126336;28;20214;-63
2021/06/06 09:24:31;;;;;;;0.00;0.00;;;;;;;;;;5131035;27;20226;-63
2021/06/06 09:27:05;;;;;;;0.00;0.00;;;;;;;;;;5125947;28;20198;-64
2021/06/06 09:29:31;;;;;;;0.00;0.00;;;;;;;;;;5126083;28;20473;-63
2021/06/06 09:32:03;;;;;;;0.00;0.00;;;;;;;;;;5122867;28;20202;-63
2021/06/06 09:34:29;;;;;;;0.00;0.00;;;;;;;;;;5123459;28;20222;-63
2021/06/06 09:37:03;;;;;;;0.00;0.00;;;;;;;;;;5123010;28;20224;-64
2021/06/06 09:39:30;;;;;;;0.00;0.00;;;;;;;;;;5123609;28;20229;-62
2021/06/06 09:41:57;;;;;;;0.00;0.00;;;;;;;;;;5122880;28;20206;-63
2021/06/06 09:44:25;;;;;;;0.00;0.00;;;;;;;;;;5125796;28;20271;-64
2021/06/06 09:46:52;;;;;;;0.00;0.00;;;;;;;;;;5132990;27;20390;-63
2021/06/06 09:49:31;;;;;;;0.00;0.00;;;;;;;;;;5125903;28;20202;-63
2021/06/06 09:51:59;;;;;;;0.00;0.00;;;;;;;;;;5122761;28;20407;-63
2021/06/06 09:54:31;;;;;;;0.10;0.10;;;;;;;;;;5108087;28;20225;-62
2021/06/06 09:56:59;;;;;;;0.00;0.00;;;;;;;;;;5123006;27;20227;-62
2021/06/06 09:59:26;;;;;;;0.00;0.00;;;;;;;;;;5125590;28;20496;-62
2021/06/06 10:01:54;;;;;;;0.00;0.00;;;;;;;;;;5123383;28;20198;-62
2021/06/06 10:04:23;;;;;;;0.00;0.00;;;;;;;;;;5118857;28;20431;-63
2021/06/06 10:06:50;;;;;;;0.00;0.00;;;;;;;;;;5125117;28;20213;-63
2021/06/06 10:09:23;;;;;;;0.00;0.00;;;;;;;;;;5125190;28;20201;-62
2021/06/06 10:11:54;;;;;;;0.00;0.00;;;;;;;;;;5124886;28;20194;-63
2021/06/06 10:14:21;;;;;;;0.00;0.00;;;;;;;;;;5121890;28;20506;-63
2021/06/06 10:16:50;;;;;;;0.00;0.00;;;;;;;;;;5120536;28;20203;-63
2021/06/06 10:19:17;;;;;;;0.00;0.00;;;;;;;;;;5121820;28;20270;-62
2021/06/06 10:21:44;;;;;;;0.00;0.00;;;;;;;;;;5124771;28;20229;-62
2021/06/06 10:24:12;;;;;;;0.00;0.00;;;;;;;;;;5129674;27;20529;-62
2021/06/06 10:26:40;;;;;;;0.00;0.00;;;;;;;;;;5134909;27;20486;-63
2021/06/06 10:29:10;;;;;;;0.10;0.10;;;;;;;;;;5121234;28;20267;-62
2021/06/06 10:31:38;;;;;;;0.00;0.00;;;;;;;;;;5112287;28;20186;-63
2021/06/06 10:34:06;;;;;;;0.00;0.00;;;;;;;;;;5124616;28;20480;-64
2021/06/06 10:36:33;;;;;;;0.00;0.00;;;;;;;;;;5124512;28;20270;-62
2021/06/06 10:38:59;;;;;;;0.00;0.00;;;;;;;;;;5124675;28;20266;-63
2021/06/06 10:41:27;;;;;;;0.00;0.00;;;;;;;;;;5124390;28;20225;-63
2021/06/06 10:43:55;;;;;;;0.00;0.00;;;;;;;;;;5113914;28;20250;-63
2021/06/06 10:46:25;;;;;;;0.00;0.00;;;;;;;;;;5124243;28;20198;-62
2021/06/06 10:48:55;;;;;;;0.00;0.00;;;;;;;;;;5124605;28;20209;-63
2021/06/06 10:51:27;;;;;;;0.00;0.00;;;;;;;;;;5120698;28;20217;-63
2021/06/06 10:53:54;;;;;;;0.00;0.00;;;;;;;;;;5124401;28;20490;-64
2021/06/06 10:56:32;;;;;;;1.35;1.20;;;;;;;;;;5122902;28;20206;-63
2021/06/06 10:58:59;;;;;;;0.00;0.00;;;;;;;;;;5124615;28;20304;-63
2021/06/06 11:01:29;;;;;;;0.00;0.00;;;;;;;;;;5112750;28;20349;-63
2021/06/06 11:04:07;;;;;;;0.32;0.32;;;;;;;;;;5119222;28;20226;-63
2021/06/06 11:06:33;;;;;;;0.00;0.00;;;;;;;;;;5106454;28;20206;-62
2021/06/06 11:09:00;;;;;;;0.00;0.00;;;;;;;;;;5120601;28;20203;-63
2021/06/06 11:11:28;;;;;;;0.00;0.00;;;;;;;;;;5113154;28;20198;-63
2021/06/06 11:13:55;;;;;;;0.00;0.00;;;;;;;;;;5115333;28;20383;-63
2021/06/06 11:16:35;;;;;;;0.00;0.00;;;;;;;;;;5132029;27;20209;-63
2021/06/06 11:19:02;;;;;;;0.00;0.00;;;;;;;;;;5128268;27;20197;-62
2021/06/06 11:21:30;;;;;;;0.00;0.00;;;;;;;;;;5127320;28;20458;-62
2021/06/06 11:23:57;;;;;;;0.00;0.00;;;;;;;;;;5117671;28;20221;-63
2021/06/06 11:26:24;;;;;;;0.00;0.00;;;;;;;;;;5124006;28;20359;-65
2021/06/06 11:29:04;;;;;;;0.03;0.03;;;;;;;;;;5131623;28;20268;-63
2021/06/06 11:31:31;;;;;;;0.00;0.00;;;;;;;;;;5119684;28;20227;-62
2021/06/06 11:34:00;;;;;;;0.00;0.00;;;;;;;;;;5124002;28;20354;-64
2021/06/06 11:36:30;;;;;;;0.00;0.00;;;;;;;;;;5123376;28;20202;-62
2021/06/06 11:39:08;;;;;;;0.00;0.00;;;;;;;;;;5114848;28;20579;-66
2021/06/06 11:41:37;;;;;;;0.00;0.00;;;;;;;;;;5123369;28;20224;-66
2021/06/06 11:44:17;;;;;;;0.00;0.00;;;;;;;;;;5128546;28;20293;-67
2021/06/06 11:46:45;;;;;;;0.00;0.00;;;;;;;;;;5118366;28;20198;-65
2021/06/06 11:49:18;;;;;;;0.00;0.00;;;;;;;;;;5123193;28;20202;-66
2021/06/06 11:51:46;;;;;;;0.30;0.30;;;;;;;;;;5123477;28;20255;-66
2021/06/06 11:54:15;;;;;;;0.00;0.00;;;;;;;;;;5119832;28;20199;-66
2021/06/06 11:56:41;;;;;;;0.00;0.00;;;;;;;;;;5123856;28;20202;-65
2021/06/06 11:59:10;;;;;;;0.00;0.00;;;;;;;;;;5124856;28;20419;-63
2021/06/06 12:01:46;;;;;;;0.00;0.00;;;;;;;;;;5122423;28;20202;-66
2021/06/06 12:04:12;;;;;;;0.00;0.00;;;;;;;;;;5123091;28;20228;-65
2021/06/06 12:06:40;;;;;;;0.00;0.00;;;;;;;;;;5118163;28;20509;-65
2021/06/06 12:09:14;;;;;;;0.03;0.03;;;;;;;;;;5109609;28;20212;-65
2021/06/06 12:11:41;;;;;;;0.00;0.00;;;;;;;;;;5118869;28;20198;-64
2021/06/06 12:14:08;;;;;;;0.00;0.00;;;;;;;;;;5113501;28;20206;-64
2021/06/06 12:16:34;;;;;;;0.00;0.00;;;;;;;;;;5117191;28;20202;-67
2021/06/06 12:19:02;;;;;;;0.00;0.00;;;;;;;;;;5122439;28;20493;-67
2021/06/06 12:21:30;;;;;;;0.00;0.00;;;;;;;;;;5112967;28;20496;-65
2021/06/06 12:24:06;;;;;;;0.00;0.00;;;;;;;;;;5122821;28;20226;-65
2021/06/06 12:26:33;;;;;;;0.00;0.00;;;;;;;;;;5121261;28;20194;-65
2021/06/06 12:28:59;;;;;;;0.00;0.00;;;;;;;;;;5127271;28;20212;-65
2021/06/06 12:31:27;;;;;;;0.00;0.00;;;;;;;;;;5123488;28;20385;-65
2021/06/06 12:33:53;;;;;;;0.00;0.00;;;;;;;;;;5126992;28;20509;-64
2021/06/06 12:36:21;;;;;;;0.00;0.00;;;;;;;;;;5125378;28;20256;-65
2021/06/06 12:38:49;;;;;;;0.00;0.00;;;;;;;;;;5115381;28;20545;-64
2021/06/06 12:44:20;;;;;;;0.00;0.00;;;;;;;;;;5112995;28;20456;-63
2021/06/06 12:46:50;;;;;;;0.00;0.00;;;;;;;;;;5118452;28;20202;-65
2021/06/06 12:49:16;;;;;;;0.00;0.00;;;;;;;;;;5127172;28;20247;-65
2021/06/06 12:51:47;;;;;;;0.00;0.00;;;;;;;;;;5126712;28;20342;-64
2021/06/06 12:54:15;;;;;;;0.00;0.00;;;;;;;;;;5117245;28;20199;-66
2021/06/06 12:56:41;;;;;;;0.00;0.00;;;;;;;;;;5113027;28;20229;-65
2021/06/06 12:59:08;;;;;;;0.00;0.00;;;;;;;;;;5125271;27;20242;-66
2021/06/06 13:01:35;;;;;;;0.00;0.00;;;;;;;;;;5124374;28;20500;-67
2021/06/06 13:04:09;;;;;;;0.00;0.00;;;;;;;;;;5125527;28;20221;-65
2021/06/06 13:06:37;;;;;;;0.00;0.00;;;;;;;;;;5124409;28;20538;-64
2021/06/06 13:09:14;;;;;;;0.00;0.00;;;;;;;;;;5135677;27;20359;-67
2021/06/06 13:11:40;;;;;;;0.00;0.00;;;;;;;;;;5128954;27;20197;-68
2021/06/06 13:14:16;;;;;;;0.00;0.00;;;;;;;;;;5126411;28;20198;-66
2021/06/06 13:16:46;;;;;;;0.10;0.10;;;;;;;;;;5118930;27;20244;-68
2021/06/06 13:19:18;;;;;;;0.00;0.00;;;;;;;;;;5126460;28;20210;-69
2021/06/06 13:21:46;;;;;;;0.00;0.00;;;;;;;;;;5126426;28;20255;-69
2021/06/06 13:24:16;;;;;;;0.00;0.00;;;;;;;;;;5124731;28;20219;-68
2021/06/06 13:26:43;;;;;;;0.00;0.00;;;;;;;;;;5118716;28;20198;-66
2021/06/06 13:29:10;;;;;;;0.00;0.00;;;;;;;;;;5131184;27;20257;-65
2021/06/06 13:31:37;;;;;;;0.00;0.00;;;;;;;;;;5126130;28;20277;-65
2021/06/06 13:34:06;;;;;;;0.00;0.00;;;;;;;;;;5125989;28;20198;-67
2021/06/06 13:36:32;;;;;;;0.00;0.00;;;;;;;;;;5120057;28;20397;-66
2021/06/06 13:38:59;;;;;;;0.00;0.00;;;;;;;;;;5125422;28;20229;-67
2021/06/06 13:41:25;;;;;;;0.00;0.00;;;;;;;;;;5120128;28;20202;-64
2021/06/06 13:43:52;;;;;;;0.00;0.00;;;;;;;;;;5125702;28;20412;-66
2021/06/06 13:46:20;;;;;;;0.00;0.00;;;;;;;;;;5124013;28;20206;-66
2021/06/06 13:48:46;;;;;;;0.00;0.00;;;;;;;;;;5125814;28;20365;-66
2021/06/06 13:51:13;;;;;;;0.00;0.00;;;;;;;;;;5125277;28;20202;-65
2021/06/06 13:53:39;;;;;;;0.00;0.00;;;;;;;;;;5125407;28;20207;-65
2021/06/06 13:56:06;;;;;;;0.00;0.00;;;;;;;;;;5123742;28;20206;-64
2021/06/06 13:58:32;;;;;;;0.00;0.00;;;;;;;;;;5125279;28;20251;-64
2021/06/06 14:00:58;;;;;;;0.05;0.05;;;;;;;;;;5125492;28;20462;-65
2021/06/06 14:03:24;;;;;;;0.00;0.00;;;;;;;;;;5125483;28;20273;-64
2021/06/06 14:05:50;;;;;;;0.00;0.00;;;;;;;;;;5123690;28;20217;-64
2021/06/06 14:08:17;;;;;;;0.00;0.00;;;;;;;;;;5124789;28;20197;-64
2021/06/06 14:10:45;;;;;;;0.00;0.00;;;;;;;;;;5121472;27;20528;-64
2021/06/06 14:13:13;;;;;;;0.00;0.00;;;;;;;;;;5123218;28;20247;-63
2021/06/06 14:15:39;;;;;;;0.00;0.00;;;;;;;;;;5112850;27;20230;-65
2021/06/06 14:18:06;;;;;;;0.00;0.00;;;;;;;;;;5130994;27;20210;-65
2021/06/06 14:20:32;;;;;;;0.00;0.00;;;;;;;;;;5123908;28;20202;-65
2021/06/06 14:22:58;;;;;;;0.00;0.00;;;;;;;;;;5139342;27;20420;-65
2021/06/06 14:25:30;;;;;;;0.00;0.00;;;;;;;;;;5125605;27;20218;-65
2021/06/06 14:27:57;;;;;;;0.00;0.00;;;;;;;;;;5127934;27;20239;-66
2021/06/06 14:30:24;;;;;;;0.00;0.00;;;;;;;;;;5119098;28;20219;-64
2021/06/06 14:32:50;;;;;;;0.00;0.00;;;;;;;;;;5120007;28;20202;-65
2021/06/06 14:35:16;;;;;;;0.00;0.00;;;;;;;;;;5123281;28;20209;-66
2021/06/06 14:37:42;;;;;;;0.00;0.00;;;;;;;;;;5127692;27;20222;-67
2021/06/06 14:40:08;;;;;;;0.00;0.00;;;;;;;;;;5116118;27;20248;-67
2021/06/06 14:42:36;;;;;;;0.00;0.00;;;;;;;;;;5131375;27;20197;-66
2021/06/06 14:45:03;;;;;;;0.00;0.00;;;;;;;;;;5105908;27;20245;-66
2021/06/06 14:47:28;;;;;;;0.00;0.00;;;;;;;;;;5114370;28;20198;-64